Time;durP1;ratioP1;P1;durP2;ratioP2;P2;SDS_P1;SDS_P2;PMS_P1;PMS_P2;Temp;Humidity;BMP_temperature;BMP_pressure;BME280_temperature;BME280_humidity;BME280_pressure;Samples;Min_cycle;Max_cycle;Signal;HPM_P1;HPM_P2
2023/08/13 00:01:28;;;;;;;12.27;3.70;;;;;;;16.06;81.50;101640.03;6161876;23;20110;-68
2023/08/13 00:03:53;;;;;;;8.95;3.28;;;;;;;16.01;81.29;101640.13;6159785;23;20136;-68
2023/08/13 09:54:24;;;;;;;10.65;2.40;;;;;;;21.54;65.57;101576.56;6225004;22;20058;-70
2023/08/13 09:56:58;;;;;;;6.53;2.60;;;;;;;21.59;65.26;101568.34;6208108;23;20493;-69
2023/08/13 09:59:25;;;;;;;8.30;2.22;;;;;;;21.73;63.79;101560.56;6202404;23;20030;-65
2023/08/13 10:01:52;;;;;;;7.15;2.25;;;;;;;21.92;64.31;101557.03;6212717;23;20023;-64
2023/08/13 10:04:18;;;;;;;8.48;2.90;;;;;;;22.01;65.12;101563.72;6214575;23;20031;-68
2023/08/13 10:06:46;;;;;;;7.07;2.45;;;;;;;22.06;65.56;101559.03;6163512;23;20060;-67
2023/08/13 10:09:12;;;;;;;7.18;2.28;;;;;;;21.95;62.02;101555.09;6212680;23;20028;-67
2023/08/13 10:11:38;;;;;;;10.35;2.50;;;;;;;21.95;61.81;101554.22;6207863;23;20907;-68
2023/08/13 10:14:03;;;;;;;9.65;2.58;;;;;;;21.99;62.68;101558.47;6187844;23;20509;-68
2023/08/13 10:16:29;;;;;;;7.57;2.53;;;;;;;22.00;61.93;101557.53;6164517;23;20004;-67
2023/08/13 10:19:00;;;;;;;7.03;2.60;;;;;;;21.94;62.45;101563.16;6187559;23;20023;-63
2023/08/13 10:21:36;;;;;;;10.00;2.90;;;;;;;22.04;62.50;101564.44;6189518;23;20019;-67
2023/08/13 10:24:03;;;;;;;7.68;2.67;;;;;;;22.15;63.98;101562.13;6190117;23;20310;-68
2023/08/13 10:26:28;;;;;;;8.43;2.42;;;;;;;22.22;64.21;101561.81;6187962;23;20004;-68
2023/08/13 10:28:54;;;;;;;8.02;2.53;;;;;;;22.23;63.76;101550.22;6163256;23;20386;-62
2023/08/13 10:31:23;;;;;;;10.45;2.70;;;;;;;22.33;65.46;101559.50;6161877;23;20419;-63
2023/08/13 10:34:00;;;;;;;7.18;2.50;;;;;;;22.43;64.45;101563.44;6212757;23;20357;-62
2023/08/13 10:36:42;;;;;;;7.32;2.80;;;;;;;22.43;64.74;101550.09;6187563;23;20074;-68
2023/08/13 10:39:30;;;;;;;6.40;2.80;;;;;;;22.55;65.43;101553.09;6189461;23;20003;-67
2023/08/13 10:41:56;;;;;;;6.68;2.22;;;;;;;22.43;64.05;101552.75;6214099;23;20008;-68
2023/08/13 10:44:32;;;;;;;9.52;2.67;;;;;;;22.29;62.21;101548.06;6189135;23;20011;-68
2023/08/13 10:46:58;;;;;;;6.97;2.70;;;;;;;22.13;62.65;101547.97;6188259;23;20339;-62
2023/08/13 10:49:27;;;;;;;10.60;4.85;;;;;;;22.14;64.15;101548.84;6213976;23;20073;-63
2023/08/13 10:51:53;;;;;;;7.30;2.20;;;;;;;22.21;63.98;101546.72;6182919;23;20027;-64
2023/08/13 10:54:19;;;;;;;7.72;2.42;;;;;;;22.25;63.42;101545.66;6188136;23;20047;-68
2023/08/13 10:56:54;;;;;;;8.75;2.65;;;;;;;22.44;64.43;101549.16;6239100;23;20023;-67
2023/08/13 10:59:19;;;;;;;8.02;2.35;;;;;;;22.49;61.94;101539.09;6212413;23;20008;-63
2023/08/13 11:02:19;;;;;;;7.05;2.45;;;;;;;22.68;61.83;101532.81;6187534;23;20099;-63
2023/08/13 11:04:46;;;;;;;10.87;3.20;;;;;;;22.88;62.25;101537.09;6213858;23;20005;-63
2023/08/13 11:07:13;;;;;;;9.80;2.42;;;;;;;22.87;61.26;101539.88;6201874;23;20074;-64
2023/08/13 11:09:40;;;;;;;7.45;2.38;;;;;;;22.91;60.53;101538.75;6185709;23;20016;-63
2023/08/13 11:12:07;;;;;;;8.73;2.55;;;;;;;23.12;61.09;101534.13;6187806;23;20008;-63
2023/08/13 11:14:34;;;;;;;7.07;2.47;;;;;;;22.99;59.20;101537.41;6238946;22;20004;-63
2023/08/13 11:17:00;;;;;;;8.80;2.55;;;;;;;23.22;61.06;101532.69;6212178;23;20801;-63
2023/08/13 11:19:28;;;;;;;8.63;2.08;;;;;;;23.18;59.71;101536.47;6162663;23;20095;-64
2023/08/13 11:21:56;;;;;;;8.15;2.13;;;;;;;23.05;58.66;101541.56;6185885;23;20078;-62
2023/08/13 11:24:24;;;;;;;8.70;2.90;;;;;;;23.13;59.56;101533.16;6212906;23;20008;-62
2023/08/13 11:26:50;;;;;;;9.60;2.28;;;;;;;23.04;58.68;101539.81;6189017;23;20091;-63
2023/08/13 11:29:20;;;;;;;6.68;2.17;;;;;;;23.20;59.26;101533.69;6240063;23;20361;-63
2023/08/13 11:31:49;;;;;;;9.13;2.25;;;;;;;23.29;58.73;101538.56;6187759;23;20012;-63
2023/08/13 11:34:16;;;;;;;7.38;2.70;;;;;;;23.31;58.34;101528.63;6212675;23;20083;-63
2023/08/13 11:36:44;;;;;;;9.68;2.45;;;;;;;23.25;57.53;101537.00;6210885;23;20371;-63
2023/08/13 11:39:10;;;;;;;7.50;2.58;;;;;;;23.19;57.70;101530.19;6214009;23;20434;-64
2023/08/13 11:41:37;;;;;;;8.63;2.10;;;;;;;23.14;58.65;101534.91;6187133;23;20012;-63
2023/08/13 11:44:03;;;;;;;8.65;2.15;;;;;;;23.25;59.08;101537.84;6186374;23;20016;-64
2023/08/13 11:46:56;;;;;;;8.50;2.58;;;;;;;23.56;60.39;101535.31;6186959;23;20027;-63
2023/08/13 11:49:22;;;;;;;7.05;2.72;;;;;;;23.44;58.25;101529.69;6211612;23;20008;-70
2023/08/13 11:51:48;;;;;;;9.00;2.53;;;;;;;23.64;57.91;101522.38;6187933;23;20019;-66
2023/08/13 11:54:17;;;;;;;10.52;2.72;;;;;;;23.52;56.45;101519.44;6186603;23;20047;-69
2023/08/13 11:56:42;;;;;;;6.63;2.58;;;;;;;23.74;61.52;101522.72;6213012;23;20032;-69
2023/08/13 11:59:08;;;;;;;6.40;2.33;;;;;;;23.50;56.58;101515.09;6213339;23;20004;-71
2023/08/13 12:01:34;;;;;;;8.55;2.80;;;;;;;23.40;56.75;101514.75;6212099;23;20094;-63
2023/08/13 12:04:22;;;;;;;8.48;2.50;;;;;;;23.37;56.53;101524.78;6187816;23;20012;-67
2023/08/13 12:06:48;;;;;;;6.40;2.40;;;;;;;23.49;57.70;101513.41;6212480;23;20016;-69
2023/08/13 12:09:14;;;;;;;7.78;2.58;;;;;;;23.53;57.20;101514.94;6187852;23;20525;-62
2023/08/13 12:11:40;;;;;;;8.60;2.53;;;;;;;23.53;57.21;101514.94;6187358;23;20069;-62
2023/08/13 12:14:06;;;;;;;10.40;3.47;;;;;;;23.57;58.97;101505.78;6187323;23;20008;-63
2023/08/13 12:16:32;;;;;;;6.57;2.05;;;;;;;23.73;58.62;101513.81;6212902;23;20008;-63
2023/08/13 12:18:57;;;;;;;8.82;2.70;;;;;;;23.63;57.27;101505.47;6186860;23;20307;-63
2023/08/13 12:21:23;;;;;;;6.95;2.33;;;;;;;23.73;58.18;101507.59;6186936;23;20012;-63
2023/08/13 12:23:49;;;;;;;8.15;2.28;;;;;;;23.89;58.45;101505.81;6187265;23;20040;-63
2023/08/13 12:26:15;;;;;;;11.63;3.03;;;;;;;23.91;56.60;101508.41;6186856;23;20058;-63
2023/08/13 12:28:41;;;;;;;8.20;2.53;;;;;;;23.84;56.16;101514.06;6213348;23;20012;-63
2023/08/13 12:31:07;;;;;;;7.72;2.35;;;;;;;23.72;56.97;101509.44;6188384;23;20019;-63
2023/08/13 12:33:32;;;;;;;6.72;2.45;;;;;;;23.71;56.86;101497.00;6186529;23;20012;-63
2023/08/13 12:35:58;;;;;;;6.65;2.25;;;;;;;23.70;57.14;101500.59;6210451;23;20008;-63
2023/08/13 12:38:23;;;;;;;8.10;2.50;;;;;;;23.76;55.79;101494.94;6209839;23;20079;-63
2023/08/13 12:40:48;;;;;;;6.18;2.40;;;;;;;23.58;54.42;101490.63;6185364;23;20034;-63
2023/08/13 12:43:14;;;;;;;14.15;3.00;;;;;;;23.48;55.53;101495.63;6186279;23;20042;-63
2023/08/13 12:45:39;;;;;;;6.82;2.22;;;;;;;23.48;57.00;101491.13;6211294;23;20325;-63
2023/08/13 12:48:05;;;;;;;5.65;2.20;;;;;;;23.43;56.08;101498.56;6186751;23;20397;-62
2023/08/13 12:50:30;;;;;;;7.82;2.33;;;;;;;23.38;56.35;101492.59;6186486;23;20574;-64
2023/08/13 12:52:57;;;;;;;7.68;2.60;;;;;;;23.33;56.72;101492.84;6185374;22;20016;-68
2023/08/13 12:55:22;;;;;;;8.43;2.60;;;;;;;23.40;57.09;101481.81;6186997;23;20031;-67
2023/08/13 12:57:48;;;;;;;7.95;2.30;;;;;;;23.61;57.75;101483.28;6187764;23;20020;-67
2023/08/13 13:00:14;;;;;;;7.63;2.10;;;;;;;23.56;55.62;101481.81;6160959;23;20016;-68
2023/08/13 13:02:39;;;;;;;8.32;2.83;;;;;;;23.40;54.03;101476.44;6161585;23;20412;-67
2023/08/13 13:05:05;;;;;;;7.47;2.28;;;;;;;23.24;53.36;101468.44;6185221;23;20022;-68
2023/08/13 13:07:31;;;;;;;8.68;2.38;;;;;;;23.20;54.85;101475.75;6162226;23;20115;-67
2023/08/13 13:09:56;;;;;;;6.82;2.45;;;;;;;23.25;55.83;101472.84;6188038;23;20287;-64
2023/08/13 13:12:22;;;;;;;7.03;2.20;;;;;;;23.27;55.33;101477.13;6185672;23;20023;-63
2023/08/13 13:14:48;;;;;;;6.80;2.40;;;;;;;23.48;58.54;101463.53;6184555;23;20012;-63
2023/08/13 13:17:14;;;;;;;5.90;2.28;;;;;;;23.65;58.56;101470.59;6211020;23;20426;-63
2023/08/13 13:19:39;;;;;;;8.20;2.55;;;;;;;23.67;57.77;101472.22;6186819;23;20011;-63
2023/08/13 13:22:24;;;;;;;8.82;2.38;;;;;;;23.70;58.00;101473.84;6189211;23;20020;-63
2023/08/13 13:24:49;;;;;;;8.15;2.30;;;;;;;23.62;58.31;101476.09;6210850;23;20011;-63
2023/08/13 13:27:16;;;;;;;8.32;3.50;;;;;;;23.62;56.27;101474.31;6186733;23;20012;-63
2023/08/13 13:29:41;;;;;;;10.23;2.30;;;;;;;23.75;58.05;101470.91;6210164;23;20018;-64
2023/08/13 13:32:07;;;;;;;7.88;2.90;;;;;;;23.79;61.94;101473.34;6185096;23;20095;-64
2023/08/13 13:34:32;;;;;;;4.72;2.10;;;;;;;23.84;55.77;101468.56;6184640;23;20023;-63
2023/08/13 13:36:58;;;;;;;6.93;2.47;;;;;;;23.69;53.91;101469.44;6187176;23;20015;-63
2023/08/13 13:39:24;;;;;;;8.38;2.97;;;;;;;23.63;55.26;101467.13;6186525;23;20243;-68
2023/08/13 13:41:52;;;;;;;6.00;2.10;;;;;;;23.48;54.64;101453.69;6185995;23;20012;-67
2023/08/13 13:44:17;;;;;;;6.90;2.40;;;;;;;23.44;54.32;101465.50;6186690;23;20012;-67
2023/08/13 13:46:43;;;;;;;5.80;2.25;;;;;;;23.37;52.89;101456.09;6211950;23;20089;-67
2023/08/13 13:49:09;;;;;;;7.10;2.72;;;;;;;23.26;52.91;101462.06;6187520;23;20023;-67
2023/08/13 13:51:34;;;;;;;6.90;2.38;;;;;;;23.22;55.32;101459.66;6189036;23;20008;-67
2023/08/13 13:53:59;;;;;;;6.95;2.85;;;;;;;23.12;56.78;101452.13;6189018;23;20020;-68
2023/08/13 13:56:29;;;;;;;5.47;2.22;;;;;;;23.18;55.63;101448.25;6162765;23;20012;-67
2023/08/13 13:58:55;;;;;;;6.00;2.10;;;;;;;23.23;55.71;101458.66;6211965;23;20008;-67
2023/08/13 14:01:20;;;;;;;8.57;2.22;;;;;;;23.25;57.80;101456.78;6184920;23;20038;-67
2023/08/13 14:03:46;;;;;;;6.93;2.47;;;;;;;23.25;59.51;101451.44;6186100;23;20008;-67
2023/08/13 14:06:11;;;;;;;6.53;2.30;;;;;;;23.12;58.24;101452.13;6186499;23;20016;-63
2023/08/13 14:08:37;;;;;;;6.60;2.40;;;;;;;23.13;58.44;101443.16;6183999;23;20196;-67
2023/08/13 14:11:02;;;;;;;8.82;2.72;;;;;;;23.02;59.35;101446.38;6186679;23;20012;-62
2023/08/13 14:13:33;;;;;;;6.47;2.75;;;;;;;23.08;58.87;101449.66;6187352;23;20090;-67
2023/08/13 14:16:02;;;;;;;6.63;2.42;;;;;;;23.12;61.40;101445.91;6237934;23;20086;-66
2023/08/13 14:18:27;;;;;;;7.63;2.53;;;;;;;23.03;59.79;101447.25;6187470;23;20019;-67
2023/08/13 14:20:54;;;;;;;7.88;2.55;;;;;;;23.06;58.86;101447.06;6190193;23;20016;-66
2023/08/13 14:23:20;;;;;;;5.65;2.15;;;;;;;22.96;58.93;101445.84;6209329;23;20063;-62
2023/08/13 14:25:45;;;;;;;6.38;2.22;;;;;;;22.91;61.14;101442.56;6189277;23;20079;-63
2023/08/13 14:28:13;;;;;;;7.00;2.60;;;;;;;22.90;62.34;101443.50;6170361;23;20012;-62
2023/08/13 14:30:39;;;;;;;9.25;2.85;;;;;;;22.84;63.18;101445.56;6222192;23;20106;-67
2023/08/13 14:33:05;;;;;;;7.50;2.80;;;;;;;22.87;62.10;101447.22;6192925;22;20399;-68
2023/08/13 14:35:30;;;;;;;6.03;2.22;;;;;;;22.87;63.77;101439.22;6238860;23;20052;-62
2023/08/13 14:37:57;;;;;;;6.10;2.35;;;;;;;22.92;62.01;101438.94;6188711;23;20008;-69
2023/08/13 14:40:26;;;;;;;5.57;2.60;;;;;;;22.97;63.24;101437.75;6238355;23;20154;-71
2023/08/13 14:42:51;;;;;;;7.53;2.50;;;;;;;23.06;63.32;101436.38;6187332;22;20016;-71
2023/08/13 14:45:17;;;;;;;8.90;2.60;;;;;;;23.11;62.14;101439.69;6186214;23;20492;-73
2023/08/13 14:51:04;;;;;;;8.13;2.72;;;;;;;23.53;63.14;101421.31;6232620;23;20028;-68
2023/08/13 14:53:30;;;;;;;8.52;2.42;;;;;;;23.82;61.41;101424.09;6238304;22;20043;-64
2023/08/13 15:02:44;;;;;;;6.82;2.55;;;;;;;23.94;61.28;101417.22;6241165;23;20038;-69
2023/08/13 15:05:09;;;;;;;9.65;3.10;;;;;;;23.86;61.32;101420.31;6211474;23;20030;-69
2023/08/13 15:07:36;;;;;;;8.63;2.63;;;;;;;23.85;60.57;101423.97;6212213;23;20490;-62
2023/08/13 15:10:02;;;;;;;7.53;2.38;;;;;;;23.85;60.45;101419.47;6161733;23;20500;-62
2023/08/13 15:12:28;;;;;;;8.73;2.67;;;;;;;23.94;61.21;101419.91;6187278;23;20329;-61
2023/08/13 15:14:53;;;;;;;7.15;2.25;;;;;;;23.97;60.88;101419.72;6187364;23;20012;-62
2023/08/13 15:17:21;;;;;;;6.05;2.47;;;;;;;24.14;62.50;101422.25;6187202;23;20342;-62
2023/08/13 15:19:47;;;;;;;6.28;2.30;;;;;;;24.30;61.26;101424.00;6163472;23;20469;-62
2023/08/13 15:22:12;;;;;;;7.53;2.75;;;;;;;24.44;60.42;101417.78;6187981;23;20477;-61
2023/08/13 15:24:38;;;;;;;8.10;3.00;;;;;;;24.42;58.89;101407.19;6159754;23;20619;-62
2023/08/13 15:27:03;;;;;;;7.07;2.53;;;;;;;24.60;59.47;101399.88;6187807;23;20382;-69
2023/08/13 15:29:29;;;;;;;6.00;2.20;;;;;;;24.46;58.15;101407.88;6161725;23;20019;-69
2023/08/13 15:31:54;;;;;;;15.82;12.05;;;;;;;24.36;55.75;101407.56;6188111;23;20008;-62
2023/08/13 15:34:24;;;;;;;6.13;2.92;;;;;;;24.41;58.57;101413.50;6161835;23;20023;-62
2023/08/13 15:36:50;;;;;;;;;;;;;;;24.63;59.20;101417.56;6211109;23;20489;-62
2023/08/13 15:39:15;;;;;;;10.55;2.83;;;;;;;24.06;57.67;101427.19;6210102;23;19941;-61
2023/08/13 15:41:41;;;;;;;6.68;2.50;;;;;;;23.79;61.98;101430.53;6184899;23;20012;-61
2023/08/13 15:44:06;;;;;;;6.18;2.38;;;;;;;23.48;63.72;101437.63;6188257;23;20090;-63
2023/08/13 15:46:32;;;;;;;6.10;2.35;;;;;;;23.37;64.84;101450.75;6187605;23;20023;-60
2023/08/13 15:48:57;;;;;;;7.45;2.95;;;;;;;23.20;65.33;101442.81;6163464;23;20016;-60
2023/08/13 15:51:23;;;;;;;8.73;2.58;;;;;;;23.04;65.05;101446.28;6187682;23;20414;-61
2023/08/13 15:53:48;;;;;;;5.78;2.10;;;;;;;22.91;65.97;101446.09;6207311;23;20106;-60
2023/08/13 15:56:14;;;;;;;8.80;2.40;;;;;;;22.88;66.97;101448.06;6187442;23;20091;-60
2023/08/13 15:58:39;;;;;;;8.13;2.50;;;;;;;22.86;66.84;101447.28;6187397;23;20486;-61
2023/08/13 16:01:05;;;;;;;8.43;2.30;;;;;;;22.79;66.23;101444.94;6187992;23;20012;-61
2023/08/13 16:03:32;;;;;;;5.60;2.00;;;;;;;22.86;66.59;101447.28;6204568;23;20022;-65
2023/08/13 16:06:00;;;;;;;5.68;2.05;;;;;;;22.94;66.25;101445.94;6196119;23;20166;-66
2023/08/13 16:08:26;;;;;;;5.60;2.10;;;;;;;22.88;64.55;101438.25;6201839;23;20003;-66
2023/08/13 16:10:59;;;;;;;5.93;2.28;;;;;;;22.80;63.85;101441.34;6205380;23;20008;-67
2023/08/13 16:13:42;;;;;;;9.35;2.40;;;;;;;22.88;65.09;101442.72;6212701;23;20341;-62
2023/08/13 16:16:08;;;;;;;8.23;2.20;;;;;;;22.73;65.48;101447.97;6187269;23;20022;-66
2023/08/13 16:18:33;;;;;;;6.05;2.33;;;;;;;22.67;64.71;101442.94;6163578;23;20043;-61
2023/08/13 16:20:58;;;;;;;7.13;2.47;;;;;;;22.57;64.98;101449.69;6187043;23;20050;-61
2023/08/13 16:23:24;;;;;;;6.57;2.00;;;;;;;22.66;65.88;101434.06;6184682;23;20027;-61
2023/08/13 16:25:49;;;;;;;5.53;2.22;;;;;;;22.67;64.79;101438.47;6186050;23;20020;-61
2023/08/13 16:29:05;;;;;;;10.88;2.22;;;;;;;22.79;64.77;101436.94;6181529;23;20016;-68
2023/08/13 16:31:32;;;;;;;6.35;2.00;;;;;;;22.78;64.59;101443.22;6181816;23;20349;-60
2023/08/13 16:33:58;;;;;;;10.48;2.60;;;;;;;22.67;64.14;101442.94;6207938;23;20026;-61
2023/08/13 16:36:27;;;;;;;4.25;1.77;;;;;;;22.71;65.57;101443.63;6179924;23;20023;-61
2023/08/13 16:38:53;;;;;;;9.20;2.45;;;;;;;22.68;64.90;101436.63;6186606;23;20042;-60
2023/08/13 16:41:18;;;;;;;4.95;2.03;;;;;;;22.74;64.51;101438.13;6149610;23;20690;-61
2023/08/13 16:43:43;;;;;;;8.20;2.47;;;;;;;22.64;64.80;101446.63;6155503;23;20020;-61
2023/08/13 16:46:09;;;;;;;6.28;2.30;;;;;;;22.62;65.73;101442.31;6187002;23;20827;-60
2023/08/13 16:48:34;;;;;;;8.20;2.35;;;;;;;22.44;65.40;101439.69;6214075;23;20042;-61
2023/08/13 16:51:02;;;;;;;4.22;2.00;;;;;;;22.46;66.50;101447.59;6214644;23;20020;-64
2023/08/13 16:53:27;;;;;;;4.97;1.90;;;;;;;22.27;66.63;101445.00;6175965;23;20035;-61
2023/08/13 16:55:52;;;;;;;8.65;2.40;;;;;;;22.18;66.50;101445.47;6179352;23;20099;-61
2023/08/13 16:58:18;;;;;;;8.43;2.28;;;;;;;22.14;67.60;101436.75;6199822;23;20540;-61
2023/08/13 17:00:43;;;;;;;6.60;2.20;;;;;;;22.08;67.75;101448.59;6177731;23;20012;-61
2023/08/13 17:03:09;;;;;;;5.95;1.90;;;;;;;22.08;68.07;101447.72;6174280;22;20102;-62
2023/08/13 17:05:35;;;;;;;5.70;2.00;;;;;;;21.87;67.07;101439.00;6210068;23;20015;-61
2023/08/13 17:08:01;;;;;;;5.18;2.10;;;;;;;21.88;68.04;101436.28;6174131;23;20446;-61
2023/08/13 17:10:26;;;;;;;8.25;2.17;;;;;;;21.86;68.07;101440.78;6186045;23;20016;-60
2023/08/13 17:12:51;;;;;;;6.13;1.98;;;;;;;21.72;68.25;101430.84;6214550;22;20087;-77
2023/08/13 17:15:17;;;;;;;5.43;1.83;;;;;;;21.71;68.57;101445.09;6209213;23;20180;-76
2023/08/13 17:17:43;;;;;;;5.03;1.70;;;;;;;21.69;69.17;101446.97;6185731;23;20008;-77
2023/08/13 17:20:13;;;;;;;6.40;2.33;;;;;;;21.73;69.38;101442.34;6186916;23;20295;-71
2023/08/13 17:22:56;;;;;;;7.85;2.15;;;;;;;21.63;68.89;101452.59;6209838;23;20341;-67
2023/08/13 17:25:22;;;;;;;5.32;1.92;;;;;;;21.68;69.48;101453.25;6215532;23;20155;-69
2023/08/13 17:27:47;;;;;;;7.10;2.30;;;;;;;21.70;70.15;101454.03;6189397;23;20008;-73
2023/08/13 17:30:13;;;;;;;5.10;2.35;;;;;;;21.79;69.40;101458.03;6240720;23;20418;-77
2023/08/13 17:32:39;;;;;;;7.13;2.33;;;;;;;21.67;69.67;101456.00;6238918;23;20000;-69
2023/08/13 17:35:04;;;;;;;5.05;1.88;;;;;;;21.67;70.29;101454.19;6188294;23;20043;-73
2023/08/13 17:37:30;;;;;;;7.28;2.47;;;;;;;21.74;69.07;101455.63;6187661;23;20020;-75
2023/08/13 17:39:56;;;;;;;8.20;2.47;;;;;;;21.65;69.24;101452.53;6185492;23;20123;-74
2023/08/13 17:42:24;;;;;;;5.43;2.05;;;;;;;21.75;69.87;101454.69;6185808;23;20020;-73
2023/08/13 17:44:50;;;;;;;5.32;2.08;;;;;;;21.75;69.80;101448.47;6208942;23;20008;-73
2023/08/13 17:47:16;;;;;;;5.55;1.95;;;;;;;21.85;69.08;101452.44;6187421;23;20016;-74
2023/08/13 17:49:42;;;;;;;5.70;1.88;;;;;;;21.92;70.23;101442.28;6187759;23;20314;-79
2023/08/13 17:52:07;;;;;;;4.97;1.83;;;;;;;21.92;69.83;101444.97;6188752;23;20038;-77
2023/08/13 17:54:33;;;;;;;5.07;2.28;;;;;;;21.86;69.18;101443.47;6185442;23;20039;-73
2023/08/13 17:56:58;;;;;;;3.78;1.73;;;;;;;21.90;69.15;101444.19;6210086;23;20026;-70
2023/08/13 17:59:24;;;;;;;4.72;1.83;;;;;;;21.99;69.56;101443.72;6212779;23;20099;-74
2023/08/13 18:01:51;;;;;;;4.60;1.83;;;;;;;22.05;70.02;101440.75;6210772;23;20012;-69
2023/08/13 18:04:16;;;;;;;6.25;2.22;;;;;;;21.92;68.95;101452.97;6187270;23;20338;-74
2023/08/13 18:06:42;;;;;;;5.65;2.00;;;;;;;21.97;69.45;101448.28;6188832;23;20012;-77
2023/08/13 18:09:08;;;;;;;5.72;1.85;;;;;;;21.93;69.34;101450.22;6165003;23;20008;-73
2023/08/13 18:11:33;;;;;;;8.80;2.22;;;;;;;21.85;69.26;101452.44;6185623;23;20059;-73
2023/08/13 18:13:59;;;;;;;5.75;2.20;;;;;;;21.70;69.97;101462.03;6213280;23;20423;-70
2023/08/13 18:16:24;;;;;;;4.93;2.10;;;;;;;21.63;70.74;101457.94;6187584;23;20012;-71
2023/08/13 18:18:50;;;;;;;6.07;2.25;;;;;;;21.62;69.82;101448.19;6185908;23;20311;-78
2023/08/13 18:21:15;;;;;;;5.55;2.15;;;;;;;21.48;70.84;101447.97;6214086;23;20066;-77
2023/08/13 18:23:43;;;;;;;6.35;2.05;;;;;;;21.42;71.23;101455.34;6212319;23;20015;-79
2023/08/13 18:26:09;;;;;;;5.07;1.90;;;;;;;21.29;72.16;101455.06;6184002;23;20012;-73
2023/08/13 18:28:34;;;;;;;13.77;2.00;;;;;;;21.21;71.23;101457.22;6186047;23;20123;-79
2023/08/13 18:31:00;;;;;;;9.75;6.97;;;;;;;21.10;73.38;101459.50;6187491;23;20521;-79
2023/08/13 18:33:25;;;;;;;11.05;5.32;;;;;;;21.05;74.16;101457.06;6186766;23;20457;-74
2023/08/13 18:35:50;;;;;;;5.07;3.10;;;;;;;21.07;73.70;101455.19;6186214;23;20012;-74
2023/08/13 18:38:16;;;;;;;6.13;3.10;;;;;;;21.14;73.30;101457.56;6212315;23;20418;-72
2023/08/13 18:40:42;;;;;;;5.43;2.50;;;;;;;21.00;73.91;101461.72;6210334;23;20426;-68
2023/08/13 18:43:08;;;;;;;10.55;2.97;;;;;;;20.77;74.71;101461.00;6161209;22;20008;-70
2023/08/13 18:45:33;;;;;;;5.65;2.20;;;;;;;20.51;76.96;101466.56;6235494;23;20003;-70
2023/08/13 18:47:58;;;;;;;6.40;2.10;;;;;;;20.33;77.27;101469.09;6209929;23;20012;-73
2023/08/13 18:50:24;;;;;;;9.63;5.22;;;;;;;20.32;77.90;101472.66;6185292;23;20095;-66
2023/08/13 18:52:50;;;;;;;13.80;10.30;;;;;;;20.32;77.94;101466.50;6213283;22;20418;-71
2023/08/13 18:55:17;;;;;;;5.43;3.25;;;;;;;20.25;77.71;101473.88;6162217;23;20024;-67
2023/08/13 18:57:42;;;;;;;7.10;4.45;;;;;;;20.03;79.61;101482.75;6187316;23;20016;-68
2023/08/13 19:00:10;;;;;;;12.77;7.90;;;;;;;19.94;80.01;101480.47;6210020;23;20403;-69
2023/08/13 19:02:35;;;;;;;12.52;7.45;;;;;;;19.88;80.52;101483.38;6211350;23;20004;-71
2023/08/13 19:05:01;;;;;;;7.65;2.67;;;;;;;19.66;81.78;101480.69;6210341;23;20146;-72
2023/08/13 19:07:27;;;;;;;5.85;2.63;;;;;;;19.63;81.99;101481.66;6189591;23;20039;-69
2023/08/13 19:09:52;;;;;;;6.57;2.40;;;;;;;19.65;81.36;101487.81;6220322;22;20003;-68
2023/08/13 19:12:18;;;;;;;6.80;2.40;;;;;;;19.35;83.12;101480.09;6186158;23;20035;-68
2023/08/13 19:14:43;;;;;;;6.03;2.22;;;;;;;19.55;82.50;101491.72;6238054;22;20487;-68
2023/08/13 19:17:09;;;;;;;7.68;2.58;;;;;;;19.48;82.46;101487.56;6186796;23;20106;-66
2023/08/13 19:19:34;;;;;;;5.40;2.33;;;;;;;19.29;82.93;101492.75;6210741;23;20016;-66
2023/08/13 19:22:00;;;;;;;7.38;3.75;;;;;;;19.28;83.07;101493.66;6188273;23;20082;-61
2023/08/13 19:24:25;;;;;;;6.07;3.08;;;;;;;19.22;83.75;101497.41;6187472;23;20082;-69
2023/08/13 19:26:51;;;;;;;7.07;3.20;;;;;;;19.17;83.40;101496.72;6160415;23;20012;-76
2023/08/13 19:29:17;;;;;;;5.47;2.10;;;;;;;18.97;83.52;101497.47;6159376;23;20016;-73
2023/08/13 19:31:42;;;;;;;6.22;2.25;;;;;;;19.02;84.60;101504.34;6162269;23;20016;-69
2023/08/13 19:34:08;;;;;;;4.13;2.30;;;;;;;18.80;84.53;101498.88;6184472;23;20023;-67
2023/08/13 19:36:33;;;;;;;4.70;2.83;;;;;;;18.76;86.00;101501.72;6185125;23;20012;-67
2023/08/13 19:38:59;;;;;;;8.10;3.38;;;;;;;18.68;86.18;101502.00;6209793;23;20087;-59
2023/08/13 19:41:24;;;;;;;8.85;4.15;;;;;;;18.65;86.41;101505.63;6208633;23;20310;-60
2023/08/13 19:43:50;;;;;;;5.93;3.47;;;;;;;18.66;85.86;101502.06;6212022;23;20004;-59
2023/08/13 19:46:15;;;;;;;7.22;2.80;;;;;;;18.50;85.95;101506.16;6211740;23;20091;-58
2023/08/13 19:49:19;;;;;;;10.10;3.03;;;;;;;18.61;86.72;101514.59;6186758;23;20087;-58
2023/08/13 19:51:53;;;;;;;7.40;4.25;;;;;;;18.45;87.88;101524.03;6209034;23;20051;-59
2023/08/13 19:54:19;;;;;;;10.93;7.30;;;;;;;18.33;87.91;101520.88;6209929;23;20024;-59
2023/08/13 19:56:44;;;;;;;20.75;16.15;;;;;;;18.27;88.59;101515.75;6185270;23;20062;-59
2023/08/13 19:59:13;;;;;;;6.15;3.30;;;;;;;18.33;88.93;101523.53;6162800;23;20019;-59
2023/08/13 20:01:38;;;;;;;5.53;2.88;;;;;;;18.18;89.18;101513.41;6187650;23;20023;-59
2023/08/13 20:04:04;;;;;;;6.22;2.92;;;;;;;18.05;89.70;101515.59;6187345;23;20016;-68
2023/08/13 20:06:30;;;;;;;5.78;2.80;;;;;;;18.07;88.74;101524.34;6187509;23;20012;-68
2023/08/13 20:08:55;;;;;;;7.75;4.72;;;;;;;18.04;88.87;101513.84;6212115;23;20016;-68
2023/08/13 20:11:21;;;;;;;7.30;3.17;;;;;;;18.00;88.06;101515.75;6186790;23;20020;-68
2023/08/13 20:13:48;;;;;;;6.22;2.75;;;;;;;17.86;88.24;101517.94;6188152;23;20012;-68
2023/08/13 20:16:13;;;;;;;4.00;2.17;;;;;;;17.63;87.02;101516.88;6210077;23;20095;-68
2023/08/13 20:18:39;;;;;;;6.20;2.22;;;;;;;17.60;88.77;101519.63;6186671;23;20039;-68
2023/08/13 20:21:04;;;;;;;5.85;2.60;;;;;;;17.52;90.48;101526.91;6187148;23;20015;-68
2023/08/13 20:23:30;;;;;;;5.43;3.53;;;;;;;17.44;92.43;101526.28;6188032;23;20008;-68
2023/08/13 20:26:00;;;;;;;5.22;3.40;;;;;;;17.27;94.31;101522.34;6186638;23;20020;-68
2023/08/13 20:28:25;;;;;;;;;;;;;;;17.65;88.69;101530.94;6171809;23;20549;-71
2023/08/13 20:30:51;;;;;;;5.43;2.97;;;;;;;17.34;91.77;101523.03;6205571;23;19912;-68
2023/08/13 20:33:19;;;;;;;7.57;4.20;;;;;;;17.33;92.50;101516.00;6186262;23;20425;-71
2023/08/13 20:35:48;;;;;;;11.02;5.30;;;;;;;17.28;93.01;101518.78;6240101;23;19996;-70
2023/08/13 20:38:14;;;;;;;6.32;4.13;;;;;;;17.25;92.21;101518.84;6239986;23;20000;-70
2023/08/13 20:40:39;;;;;;;7.70;4.10;;;;;;;17.08;95.19;101515.81;6161266;23;20027;-62
2023/08/13 20:43:05;;;;;;;13.95;9.95;;;;;;;16.88;96.34;101497.84;6163623;22;20016;-62
2023/08/13 20:45:31;;;;;;;31.52;27.35;;;;;;;16.93;96.41;101517.13;6212754;23;20418;-62
2023/08/13 20:47:56;;;;;;;10.60;6.38;;;;;;;16.82;96.69;101514.72;6213329;23;20094;-61
2023/08/13 20:50:23;;;;;;;7.53;4.28;;;;;;;16.93;95.60;101511.84;6187928;23;20023;-62
2023/08/13 20:52:49;;;;;;;7.53;5.20;;;;;;;16.92;95.51;101512.75;6212507;22;20004;-62
2023/08/13 20:55:14;;;;;;;10.43;7.88;;;;;;;16.86;94.72;101513.75;6162677;23;20024;-62
2023/08/13 20:57:40;;;;;;;6.55;4.63;;;;;;;16.75;96.06;101510.50;6188792;23;20442;-62
2023/08/13 21:00:06;;;;;;;10.30;4.47;;;;;;;16.87;97.21;101510.19;6164805;23;20482;-60
2023/08/13 21:02:32;;;;;;;6.63;3.92;;;;;;;16.88;97.52;101509.31;6166021;23;20016;-60
2023/08/13 21:04:58;;;;;;;8.93;6.18;;;;;;;16.85;97.80;101508.50;6215036;23;20357;-60
2023/08/13 21:07:24;;;;;;;29.73;25.63;;;;;;;16.79;96.88;101521.00;6190191;23;20095;-60
2023/08/13 21:09:49;;;;;;;14.82;11.75;;;;;;;16.81;95.14;101513.03;6212990;23;20495;-60
2023/08/13 21:12:15;;;;;;;6.82;4.55;;;;;;;16.71;94.66;101515.03;6164272;23;20010;-60
2023/08/13 21:14:40;;;;;;;9.18;5.97;;;;;;;16.78;94.92;101513.97;6189309;23;20018;-60
2023/08/13 21:17:06;;;;;;;8.48;4.40;;;;;;;16.75;95.76;101514.06;6189016;23;20008;-59
2023/08/13 21:19:31;;;;;;;8.68;4.65;;;;;;;16.68;97.66;101511.59;6160793;23;20020;-60
2023/08/13 21:21:56;;;;;;;20.90;5.63;;;;;;;16.57;98.94;101504.81;6188157;23;20012;-61